Time;durP1;ratioP1;P1;durP2;ratioP2;P2;SDS_P1;SDS_P2;PMS_P1;PMS_P2;Temp;Humidity;BMP_temperature;BMP_pressure;BME280_temperature;BME280_humidity;BME280_pressure;Samples;Min_cycle;Max_cycle;Signal;HPM_P1;HPM_P2
2023/09/01 00:00:13;;;;;;;11.80;9.70;;;12.00;99.90;;;;;;5102446;28;20054;-50
2023/09/01 00:02:39;;;;;;;12.73;9.68;;;12.00;99.90;;;;;;5106971;28;20440;-49
2023/09/01 00:05:05;;;;;;;12.50;8.20;;;12.00;99.90;;;;;;5107406;28;20059;-49
2023/09/01 00:07:32;;;;;;;9.73;7.63;;;12.00;99.90;;;;;;5107050;28;20518;-46
2023/09/01 00:09:57;;;;;;;11.77;8.63;;;12.00;99.90;;;;;;5107049;28;20313;-48
2023/09/01 00:12:23;;;;;;;12.73;9.60;;;12.00;99.90;;;;;;5107647;28;20436;-48
2023/09/01 00:14:48;;;;;;;9.32;8.43;;;12.00;99.90;;;;;;5106915;28;20062;-48
2023/09/01 00:17:14;;;;;;;10.43;7.47;;;12.00;99.90;;;;;;5106233;28;20425;-48
2023/09/01 00:19:40;;;;;;;10.50;7.13;;;11.90;99.90;;;;;;5091608;28;20048;-48
2023/09/01 00:22:06;;;;;;;9.45;8.38;;;11.90;99.90;;;;;;5108452;27;20092;-46
2023/09/01 00:24:33;;;;;;;9.35;7.78;;;11.80;99.90;;;;;;5108896;27;20035;-49
2023/09/01 00:26:59;;;;;;;10.48;8.70;;;11.80;99.90;;;;;;5106344;28;20131;-49
2023/09/01 00:29:24;;;;;;;10.57;8.25;;;11.80;99.90;;;;;;5106589;28;20100;-50
2023/09/01 00:31:51;;;;;;;8.80;7.72;;;11.80;99.90;;;;;;5106952;28;20044;-46
2023/09/01 00:34:17;;;;;;;8.57;7.68;;;11.80;99.90;;;;;;5106141;28;20036;-49
2023/09/01 00:36:43;;;;;;;10.63;7.88;;;11.80;99.90;;;;;;5095612;28;20059;-48
2023/09/01 00:39:08;;;;;;;8.70;7.78;;;11.70;99.90;;;;;;5106062;28;20046;-47
2023/09/01 00:41:35;;;;;;;9.02;6.90;;;11.70;99.90;;;;;;5087997;28;20047;-50
2023/09/01 00:44:00;;;;;;;15.60;7.88;;;11.70;99.90;;;;;;5091300;28;20043;-47
2023/09/01 00:46:27;;;;;;;7.65;6.28;;;11.60;99.90;;;;;;5089032;28;20055;-45
2023/09/01 00:48:57;;;;;;;9.80;6.70;;;11.60;99.90;;;;;;5100868;28;20047;-48
2023/09/01 00:51:24;;;;;;;9.50;6.60;;;11.60;99.90;;;;;;5104938;28;20039;-48
2023/09/01 00:53:50;;;;;;;10.27;6.80;;;11.60;99.90;;;;;;5101722;28;20047;-49
2023/09/01 00:56:17;;;;;;;6.65;6.00;;;11.60;99.90;;;;;;5106522;28;20087;-51
2023/09/01 00:58:42;;;;;;;7.82;6.25;;;11.60;99.90;;;;;;5090191;28;20047;-48
2023/09/01 01:01:08;;;;;;;8.35;6.38;;;11.70;99.90;;;;;;5106061;28;20490;-49
2023/09/01 01:03:34;;;;;;;9.25;6.45;;;11.70;99.90;;;;;;5106342;28;20413;-50
2023/09/01 01:06:19;;;;;;;8.32;6.05;;;11.70;99.90;;;;;;5106133;28;20202;-47
2023/09/01 01:08:58;;;;;;;6.68;5.95;;;11.70;99.90;;;;;;5094559;28;20523;-48
2023/09/01 01:11:35;;;;;;;7.57;5.97;;;11.70;99.90;;;;;;5102075;28;20078;-50
2023/09/01 01:14:07;;;;;;;8.63;6.40;;;11.70;99.90;;;;;;5104246;28;20088;-47
2023/09/01 01:16:33;;;;;;;9.32;6.07;;;11.70;99.90;;;;;;5083261;28;20067;-49
2023/09/01 01:19:09;;;;;;;7.40;6.25;;;11.70;99.90;;;;;;5091123;28;20131;-49
2023/09/01 01:21:38;;;;;;;6.25;5.50;;;11.60;99.90;;;;;;5092466;28;20456;-49
2023/09/01 01:24:05;;;;;;;6.50;5.30;;;11.60;99.90;;;;;;5105763;28;20051;-48
2023/09/01 01:26:30;;;;;;;24.38;6.30;;;11.60;99.90;;;;;;5097840;28;20082;-50
2023/09/01 01:28:56;;;;;;;7.90;5.45;;;11.70;99.90;;;;;;5105317;28;20078;-48
2023/09/01 01:31:21;;;;;;;6.93;5.30;;;11.60;99.90;;;;;;5105821;28;20393;-46
2023/09/01 01:34:09;;;;;;;7.90;5.50;;;11.60;99.90;;;;;;5100102;28;20523;-47
2023/09/01 01:36:49;;;;;;;7.57;6.10;;;11.60;99.90;;;;;;5104940;28;20039;-47
2023/09/01 01:39:31;;;;;;;7.70;5.88;;;11.50;99.90;;;;;;5107060;27;20485;-50
2023/09/01 01:42:07;;;;;;;6.65;6.05;;;11.50;99.90;;;;;;5107099;27;20040;-47
2023/09/01 01:44:41;;;;;;;8.07;6.20;;;11.50;99.90;;;;;;5094746;28;20142;-47
2023/09/01 01:47:08;;;;;;;7.55;6.25;;;11.50;99.90;;;;;;5092817;28;20375;-49
2023/09/01 01:49:34;;;;;;;8.25;6.15;;;11.50;99.90;;;;;;5105271;28;20047;-48
2023/09/01 01:52:00;;;;;;;8.32;5.90;;;11.60;99.90;;;;;;5100261;28;20073;-47
2023/09/01 01:54:27;;;;;;;7.03;6.28;;;11.60;99.90;;;;;;5105191;28;20043;-47
2023/09/01 01:56:53;;;;;;;8.15;6.57;;;11.70;99.90;;;;;;5089696;28;20083;-47
2023/09/01 01:59:18;;;;;;;8.45;6.32;;;11.70;99.90;;;;;;5095801;28;20478;-48
2023/09/01 02:01:44;;;;;;;7.70;6.00;;;11.70;99.90;;;;;;5092967;28;20039;-45
2023/09/01 02:04:10;;;;;;;6.93;6.22;;;11.80;99.90;;;;;;5103774;28;20035;-47
2023/09/01 02:06:35;;;;;;;9.13;6.70;;;11.80;99.90;;;;;;5102739;28;20036;-46
2023/09/01 02:09:03;;;;;;;9.43;6.00;;;11.80;99.90;;;;;;5102103;28;20039;-50
2023/09/01 02:11:29;;;;;;;7.18;5.93;;;11.80;99.90;;;;;;5104575;28;20116;-47
2023/09/01 02:13:56;;;;;;;10.55;6.78;;;11.80;99.90;;;;;;5095076;28;20051;-47
2023/09/01 02:16:24;;;;;;;11.10;6.85;;;11.80;99.90;;;;;;5106426;27;20049;-47
2023/09/01 02:18:49;;;;;;;6.88;5.93;;;11.80;99.90;;;;;;5108358;27;20052;-50
2023/09/01 02:21:21;;;;;;;7.40;6.47;;;11.80;99.90;;;;;;5103611;28;20044;-47
2023/09/01 02:23:48;;;;;;;7.60;6.47;;;11.80;99.90;;;;;;5104698;28;20040;-47
2023/09/01 02:26:20;;;;;;;8.05;6.78;;;11.80;99.90;;;;;;5089292;28;20622;-49
2023/09/01 02:28:47;;;;;;;7.32;6.43;;;11.80;99.90;;;;;;5104740;28;20043;-47
2023/09/01 02:31:13;;;;;;;9.95;6.75;;;11.80;99.90;;;;;;5105056;28;20039;-48
2023/09/01 02:33:38;;;;;;;7.15;6.38;;;11.70;99.90;;;;;;5104880;28;20454;-47
2023/09/01 02:36:26;;;;;;;7.07;5.88;;;11.70;99.90;;;;;;5104741;28;20420;-49
2023/09/01 02:38:53;;;;;;;7.60;6.28;;;11.70;99.90;;;;;;5104504;28;20446;-45
2023/09/01 02:41:19;;;;;;;7.35;5.45;;;11.70;99.90;;;;;;5104983;28;20070;-48
2023/09/01 02:43:45;;;;;;;7.75;6.35;;;11.60;99.90;;;;;;5090923;28;20032;-46
2023/09/01 02:46:11;;;;;;;8.40;5.72;;;11.60;99.90;;;;;;5072344;28;20452;-48
2023/09/01 02:48:37;;;;;;;8.60;6.20;;;11.60;99.90;;;;;;5095366;28;20051;-49
2023/09/01 02:51:04;;;;;;;7.47;6.43;;;11.50;99.90;;;;;;5104233;27;20044;-46
2023/09/01 02:53:31;;;;;;;9.07;6.88;;;11.50;99.90;;;;;;5106024;28;20035;-49
2023/09/01 02:55:56;;;;;;;11.05;6.72;;;11.40;99.90;;;;;;5102503;28;20522;-49
2023/09/01 02:58:22;;;;;;;9.35;6.10;;;11.40;99.90;;;;;;5107541;28;20111;-48
2023/09/01 03:00:48;;;;;;;6.82;6.07;;;11.40;99.90;;;;;;5114150;28;20043;-49
2023/09/01 03:03:13;;;;;;;7.28;6.00;;;11.40;99.90;;;;;;5089035;28;20048;-50
2023/09/01 03:05:39;;;;;;;9.05;6.25;;;11.40;99.90;;;;;;5104394;28;20153;-49
2023/09/01 03:08:05;;;;;;;7.97;6.50;;;11.30;99.90;;;;;;5103523;28;20043;-49
2023/09/01 03:10:31;;;;;;;7.45;6.32;;;11.30;99.90;;;;;;5101643;28;20050;-47
2023/09/01 03:12:57;;;;;;;7.93;6.15;;;11.30;99.90;;;;;;5102289;28;20036;-47
2023/09/01 03:15:22;;;;;;;8.02;6.07;;;11.30;99.90;;;;;;5103981;28;20044;-47
2023/09/01 03:17:48;;;;;;;8.60;6.38;;;11.30;99.90;;;;;;5106108;28;20039;-49
2023/09/01 03:20:14;;;;;;;9.85;6.75;;;11.30;99.90;;;;;;5107905;28;20035;-47
2023/09/01 03:22:40;;;;;;;9.18;5.93;;;11.30;99.90;;;;;;5107594;28;20047;-50
2023/09/01 03:25:09;;;;;;;8.70;6.22;;;11.30;99.90;;;;;;5108059;28;20036;-47
2023/09/01 03:27:37;;;;;;;6.60;5.57;;;11.30;99.90;;;;;;5075133;28;20043;-47
2023/09/01 03:30:03;;;;;;;8.73;6.05;;;11.30;99.90;;;;;;5097678;28;20194;-47
2023/09/01 03:32:30;;;;;;;6.75;5.93;;;11.30;99.90;;;;;;5102905;28;20043;-46
2023/09/01 03:34:55;;;;;;;8.18;5.80;;;11.30;99.90;;;;;;5097512;28;20321;-46
2023/09/01 03:37:22;;;;;;;7.18;6.07;;;11.30;99.90;;;;;;5106923;28;20039;-49
2023/09/01 03:39:48;;;;;;;8.60;5.97;;;11.30;99.90;;;;;;5107805;28;20039;-47
2023/09/01 03:42:14;;;;;;;7.28;6.50;;;11.20;99.90;;;;;;5103834;28;20623;-48
2023/09/01 03:44:40;;;;;;;8.00;5.38;;;11.20;99.90;;;;;;5086971;28;20044;-48
2023/09/01 03:47:06;;;;;;;9.02;6.03;;;11.20;99.90;;;;;;5095583;28;20039;-48
2023/09/01 03:49:31;;;;;;;9.77;6.80;;;11.20;99.90;;;;;;5107728;27;20075;-48
2023/09/01 03:51:58;;;;;;;6.85;5.53;;;11.20;99.90;;;;;;5105654;28;20521;-50
2023/09/01 03:54:24;;;;;;;6.10;4.78;;;11.20;99.90;;;;;;5107817;28;20122;-46
2023/09/01 03:56:50;;;;;;;7.90;4.75;;;11.20;99.90;;;;;;5091981;28;20055;-47
2023/09/01 03:59:16;;;;;;;8.05;5.43;;;11.10;99.90;;;;;;5107774;28;20039;-47
2023/09/01 04:01:44;;;;;;;5.95;4.70;;;11.10;99.90;;;;;;5104900;28;20047;-47
2023/09/01 04:04:10;;;;;;;5.95;5.35;;;11.10;99.90;;;;;;5105423;28;20435;-50
2023/09/01 04:06:35;;;;;;;5.50;4.90;;;11.00;99.90;;;;;;5102940;28;20083;-47
2023/09/01 04:09:01;;;;;;;5.50;4.47;;;10.90;99.90;;;;;;5117511;27;20035;-47
2023/09/01 04:11:26;;;;;;;5.32;4.80;;;10.90;99.90;;;;;;5107198;28;20039;-48
2023/09/01 04:13:55;;;;;;;9.70;6.03;;;10.90;99.90;;;;;;5107547;28;20426;-47
2023/09/01 04:16:21;;;;;;;9.25;5.95;;;10.90;99.90;;;;;;5091357;28;20043;-48
2023/09/01 04:18:47;;;;;;;6.72;5.93;;;10.90;99.90;;;;;;5107047;28;20035;-47
2023/09/01 04:21:13;;;;;;;7.13;5.65;;;10.90;99.90;;;;;;5107010;28;20418;-49
2023/09/01 04:23:40;;;;;;;12.00;6.10;;;10.80;99.90;;;;;;5079588;28;20066;-46
2023/09/01 04:26:07;;;;;;;9.43;6.45;;;10.80;99.90;;;;;;5102145;28;20047;-47
2023/09/01 04:28:33;;;;;;;10.38;5.97;;;10.80;99.90;;;;;;5097442;28;20076;-47
2023/09/01 04:30:59;;;;;;;6.93;4.70;;;10.80;99.90;;;;;;5091572;28;20153;-48
2023/09/01 04:33:28;;;;;;;5.40;4.60;;;10.80;99.90;;;;;;5106674;28;20123;-46
2023/09/01 04:36:01;;;;;;;4.75;4.07;;;10.80;99.90;;;;;;5106399;28;20521;-45
2023/09/01 04:38:26;;;;;;;4.32;3.92;;;10.80;99.90;;;;;;5105719;28;20051;-47
2023/09/01 04:40:56;;;;;;;7.15;4.43;;;10.80;99.90;;;;;;5106828;28;20050;-47
2023/09/01 04:43:25;;;;;;;5.90;4.57;;;10.70;99.90;;;;;;5093038;28;20044;-47
2023/09/01 04:45:51;;;;;;;8.50;4.45;;;10.70;99.90;;;;;;5055917;28;20040;-46
2023/09/01 04:48:17;;;;;;;4.90;4.40;;;10.80;99.90;;;;;;5099380;28;20119;-49
2023/09/01 04:50:42;;;;;;;6.70;5.10;;;10.80;99.90;;;;;;5106947;28;20122;-46
2023/09/01 04:53:09;;;;;;;7.97;5.25;;;10.80;99.90;;;;;;5106107;27;20532;-46
2023/09/01 04:55:34;;;;;;;10.00;6.00;;;10.80;99.90;;;;;;5092816;28;20108;-46
2023/09/01 04:58:00;;;;;;;6.30;5.45;;;10.80;99.90;;;;;;5105587;28;20043;-45
2023/09/01 05:00:26;;;;;;;7.35;5.22;;;10.90;99.90;;;;;;5101278;28;20044;-47
2023/09/01 05:02:51;;;;;;;8.52;4.82;;;11.00;99.90;;;;;;5106507;28;20043;-50
2023/09/01 05:05:17;;;;;;;7.32;5.50;;;11.00;99.90;;;;;;5106727;28;20035;-48
2023/09/01 05:07:43;;;;;;;8.63;6.43;;;11.10;99.90;;;;;;5104324;28;20036;-48
2023/09/01 05:10:09;;;;;;;9.98;6.50;;;11.20;99.90;;;;;;5103699;28;20039;-47
2023/09/01 05:12:35;;;;;;;10.18;6.82;;;11.20;99.90;;;;;;5106126;28;20035;-50
2023/09/01 05:15:02;;;;;;;7.70;4.43;;;11.30;99.90;;;;;;5106186;28;20066;-48
2023/09/01 05:17:28;;;;;;;8.50;3.85;;;11.50;99.90;;;;;;5105207;28;20039;-47
2023/09/01 05:19:54;;;;;;;6.38;4.80;;;11.50;99.90;;;;;;5091810;28;20478;-47
2023/09/01 05:22:19;;;;;;;6.50;4.75;;;11.50;99.90;;;;;;5106386;28;20130;-50
2023/09/01 05:24:47;;;;;;;8.35;5.32;;;11.60;99.90;;;;;;5100649;28;20036;-47
2023/09/01 05:27:13;;;;;;;7.85;5.32;;;11.60;99.90;;;;;;5098122;28;20088;-49
2023/09/01 05:29:38;;;;;;;6.60;4.90;;;11.70;99.90;;;;;;5105732;28;20040;-48
2023/09/01 05:32:04;;;;;;;4.93;4.40;;;11.70;99.90;;;;;;5105893;28;20046;-49
2023/09/01 05:34:30;;;;;;;5.75;4.35;;;11.80;99.90;;;;;;5100226;28;20047;-48
2023/09/01 05:36:57;;;;;;;8.68;4.38;;;11.90;99.90;;;;;;5105126;28;20410;-49
2023/09/01 05:39:23;;;;;;;9.05;4.72;;;11.90;99.90;;;;;;5105223;28;20047;-48
2023/09/01 05:41:48;;;;;;;5.78;3.50;;;12.00;99.90;;;;;;5105339;28;20039;-50
2023/09/01 05:44:14;;;;;;;5.50;3.60;;;12.00;99.90;;;;;;5077517;28;20039;-47
2023/09/01 05:46:40;;;;;;;5.07;3.78;;;12.10;99.90;;;;;;5093570;28;20039;-47
2023/09/01 05:49:05;;;;;;;8.30;3.55;;;12.10;99.90;;;;;;5114013;27;20078;-47
2023/09/01 05:51:31;;;;;;;5.10;3.40;;;12.20;99.90;;;;;;5098782;28;20101;-48
2023/09/01 05:53:56;;;;;;;7.40;3.97;;;12.20;99.90;;;;;;5105450;28;20061;-46
2023/09/01 05:56:22;;;;;;;4.75;3.80;;;12.30;99.90;;;;;;5104154;28;20533;-47
2023/09/01 05:58:48;;;;;;;6.03;3.80;;;12.40;99.90;;;;;;5105336;28;20051;-47
2023/09/01 06:01:13;;;;;;;6.25;3.60;;;12.50;99.90;;;;;;5105564;28;20124;-46
2023/09/01 06:03:39;;;;;;;9.07;3.67;;;12.60;99.90;;;;;;5114479;27;20072;-46
2023/09/01 06:06:06;;;;;;;6.43;5.03;;;12.80;99.90;;;;;;5098044;28;20039;-49
2023/09/01 06:08:32;;;;;;;4.07;3.45;;;13.30;99.90;;;;;;5105116;28;20441;-47
2023/09/01 06:11:05;;;;;;;5.22;3.60;;;13.80;99.90;;;;;;5104724;28;20039;-50
2023/09/01 06:13:31;;;;;;;4.93;4.00;;;14.70;99.90;;;;;;5103274;28;20048;-46
2023/09/01 06:15:57;;;;;;;4.93;4.20;;;15.50;99.90;;;;;;5104107;28;20062;-46
2023/09/01 06:18:22;;;;;;;7.40;3.95;;;16.30;99.90;;;;;;5098818;28;20055;-48
2023/09/01 06:20:48;;;;;;;8.50;3.92;;;17.10;99.90;;;;;;5104681;28;20058;-49
2023/09/01 06:23:13;;;;;;;9.95;4.13;;;17.90;99.90;;;;;;5093462;28;20051;-47
2023/09/01 06:25:39;;;;;;;8.50;3.75;;;18.40;99.90;;;;;;5087416;28;20089;-48
2023/09/01 06:28:05;;;;;;;5.95;3.75;;;18.90;99.90;;;;;;5103412;28;20035;-47
2023/09/01 06:30:30;;;;;;;8.43;4.15;;;19.10;99.90;;;;;;5069682;28;20350;-50
2023/09/01 06:32:56;;;;;;;5.22;4.18;;;18.90;99.90;;;;;;5107940;27;20044;-47
2023/09/01 06:35:21;;;;;;;9.48;4.63;;;18.70;99.90;;;;;;5104129;27;20403;-48
2023/09/01 06:37:47;;;;;;;5.97;3.88;;;18.70;99.90;;;;;;5103454;28;20274;-47
2023/09/01 06:40:12;;;;;;;7.55;3.60;;;18.90;99.90;;;;;;5105390;27;20040;-49
2023/09/01 06:42:38;;;;;;;6.93;3.67;;;19.10;99.90;;;;;;5103006;28;20089;-48
2023/09/01 06:45:04;;;;;;;5.15;3.35;;;19.60;99.90;;;;;;5088115;28;20088;-48
2023/09/01 06:47:30;;;;;;;7.50;3.60;;;20.00;99.90;;;;;;5084838;28;21205;-47
2023/09/01 06:49:56;;;;;;;5.63;3.80;;;20.10;99.90;;;;;;5111005;27;20039;-51
2023/09/01 06:52:21;;;;;;;7.82;3.95;;;20.00;99.90;;;;;;5104135;28;20166;-48
2023/09/01 06:54:47;;;;;;;4.20;3.40;;;19.90;99.90;;;;;;5086955;28;20267;-47
2023/09/01 06:57:12;;;;;;;4.32;3.10;;;20.10;99.90;;;;;;5102799;28;20086;-49
2023/09/01 06:59:38;;;;;;;5.35;3.33;;;20.40;99.90;;;;;;5103560;28;20040;-48
2023/09/01 07:02:03;;;;;;;5.57;3.25;;;20.60;99.90;;;;;;5103497;28;20039;-51
2023/09/01 07:04:29;;;;;;;7.07;4.15;;;20.80;99.90;;;;;;5103779;28;20076;-48
2023/09/01 07:06:55;;;;;;;4.80;2.92;;;20.70;99.90;;;;;;5085324;28;20158;-47
2023/09/01 07:09:20;;;;;;;7.63;3.85;;;20.60;99.90;;;;;;5097171;28;20379;-47
2023/09/01 07:11:46;;;;;;;4.80;3.05;;;20.30;99.90;;;;;;5103580;28;20110;-47
2023/09/01 07:14:11;;;;;;;7.00;3.75;;;19.80;99.90;;;;;;5103557;28;20075;-46
2023/09/01 07:16:37;;;;;;;4.93;3.50;;;19.50;99.90;;;;;;5103168;28;20028;-46
2023/09/01 07:19:02;;;;;;;8.57;4.30;;;19.10;99.90;;;;;;5102666;28;20047;-44
2023/09/01 07:21:28;;;;;;;6.28;3.72;;;18.70;99.90;;;;;;5104553;28;20463;-46
2023/09/01 07:23:53;;;;;;;4.60;3.35;;;18.40;99.90;;;;;;5102996;28;20043;-46
2023/09/01 07:26:19;;;;;;;6.38;3.70;;;18.20;99.90;;;;;;5103349;28;20051;-45
2023/09/01 07:28:44;;;;;;;8.05;4.20;;;18.00;99.90;;;;;;5104253;28;20163;-45
2023/09/01 07:31:13;;;;;;;6.47;4.30;;;17.80;99.90;;;;;;5102542;28;20043;-45
2023/09/01 07:33:48;;;;;;;8.27;4.80;;;17.70;99.90;;;;;;5103538;28;20558;-44
2023/09/01 07:36:15;;;;;;;8.52;4.93;;;17.60;99.90;;;;;;5086279;28;20035;-44
2023/09/01 07:38:41;;;;;;;8.32;4.13;;;17.60;99.90;;;;;;5104241;28;20539;-44
2023/09/01 07:41:09;;;;;;;7.18;4.15;;;17.50;99.90;;;;;;5103502;28;20051;-45
2023/09/01 07:43:35;;;;;;;9.35;4.60;;;17.50;99.90;;;;;;5089547;28;20032;-44
2023/09/01 07:46:02;;;;;;;8.05;4.53;;;17.40;99.90;;;;;;5096890;28;20482;-44
2023/09/01 07:48:28;;;;;;;8.82;5.07;;;17.30;99.90;;;;;;5099010;28;20039;-45
2023/09/01 07:50:55;;;;;;;8.27;4.95;;;17.40;99.90;;;;;;5097138;28;20058;-45
2023/09/01 07:53:20;;;;;;;5.60;4.90;;;17.50;99.90;;;;;;5103740;28;20036;-45
2023/09/01 07:55:46;;;;;;;7.57;4.85;;;17.50;99.90;;;;;;5098429;28;20054;-46
2023/09/01 07:58:12;;;;;;;8.73;5.25;;;17.60;99.90;;;;;;5083268;28;20140;-47
2023/09/01 08:00:38;;;;;;;8.30;5.32;;;17.70;99.90;;;;;;5083506;28;20442;-46
2023/09/01 08:03:05;;;;;;;7.35;5.32;;;17.70;99.90;;;;;;5084351;28;20044;-46
2023/09/01 08:05:31;;;;;;;7.47;5.07;;;17.80;99.90;;;;;;5071350;28;20036;-45
2023/09/01 08:07:56;;;;;;;7.97;5.70;;;18.00;99.90;;;;;;5064668;28;20496;-46
2023/09/01 08:10:22;;;;;;;8.20;5.32;;;18.10;99.90;;;;;;5077558;28;20164;-46
2023/09/01 08:12:48;;;;;;;7.55;5.13;;;18.30;99.90;;;;;;5077301;28;20039;-48
2023/09/01 08:15:13;;;;;;;9.38;4.80;;;18.50;99.90;;;;;;5077838;28;20050;-45
2023/09/01 08:17:39;;;;;;;6.78;4.25;;;18.60;99.90;;;;;;5076687;28;20507;-45
2023/09/01 08:20:05;;;;;;;7.85;4.50;;;18.60;99.90;;;;;;5074272;28;20434;-46
2023/09/01 08:22:31;;;;;;;6.72;4.00;;;18.50;99.90;;;;;;5075065;28;20040;-45
2023/09/01 08:24:57;;;;;;;7.55;4.55;;;18.40;99.90;;;;;;5074290;28;20040;-45
2023/09/01 08:27:25;;;;;;;8.80;3.95;;;18.60;99.90;;;;;;5078254;28;20131;-46
2023/09/01 08:29:50;;;;;;;6.10;3.70;;;18.70;99.90;;;;;;5078605;28;20044;-49
2023/09/01 08:32:16;;;;;;;10.15;5.07;;;18.60;99.90;;;;;;5078244;28;20033;-47
2023/09/01 08:34:42;;;;;;;8.85;4.20;;;18.60;99.90;;;;;;5082312;28;20082;-47
2023/09/01 08:37:08;;;;;;;6.35;3.38;;;18.50;99.90;;;;;;5083298;28;20134;-47
2023/09/01 08:39:33;;;;;;;7.50;3.90;;;18.50;99.90;;;;;;5074798;28;20097;-48
2023/09/01 08:41:59;;;;;;;7.38;3.80;;;18.50;99.90;;;;;;5076408;28;20032;-46
2023/09/01 08:44:27;;;;;;;4.85;3.45;;;18.40;99.90;;;;;;5076549;28;20043;-48
2023/09/01 08:46:53;;;;;;;5.55;3.40;;;18.30;99.90;;;;;;5074225;28;20149;-46
2023/09/01 08:49:19;;;;;;;5.97;3.17;;;18.30;99.90;;;;;;5083304;28;20127;-45
2023/09/01 08:51:47;;;;;;;9.13;3.85;;;18.30;99.90;;;;;;5076606;28;20212;-46
2023/09/01 08:54:17;;;;;;;6.55;3.47;;;18.30;99.90;;;;;;5079566;28;20036;-46
2023/09/01 08:56:43;;;;;;;7.03;3.53;;;18.30;99.90;;;;;;5099114;28;20086;-47
2023/09/01 08:59:08;;;;;;;7.88;3.50;;;18.30;99.90;;;;;;5103037;27;20071;-47
2023/09/01 09:01:35;;;;;;;7.93;3.70;;;18.30;99.90;;;;;;5105061;27;20490;-45
2023/09/01 09:04:01;;;;;;;7.53;3.80;;;18.30;99.90;;;;;;5102644;27;20130;-46
2023/09/01 09:06:33;;;;;;;4.03;2.80;;;18.30;99.90;;;;;;5105176;27;20123;-45
2023/09/01 09:09:18;;;;;;;5.50;3.50;;;18.30;99.90;;;;;;5077274;28;20047;-45
2023/09/01 09:11:55;;;;;;;5.38;2.88;;;18.30;99.90;;;;;;5084424;28;20808;-46
2023/09/01 09:14:21;;;;;;;5.63;3.38;;;18.30;99.90;;;;;;5078901;28;20043;-46
2023/09/01 09:16:54;;;;;;;7.20;2.70;;;18.20;99.90;;;;;;5084119;28;20044;-49
2023/09/01 09:19:20;;;;;;;;;;;18.20;99.90;;;;;;5102056;27;20043;-45
2023/09/01 09:21:45;;;;;;;7.55;2.83;;;18.30;99.90;;;;;;5102147;27;20032;-48
2023/09/01 09:24:11;;;;;;;9.00;3.63;;;18.30;99.90;;;;;;5105088;28;20046;-48
2023/09/01 09:26:37;;;;;;;5.70;3.10;;;18.40;99.90;;;;;;5104329;28;20378;-47
2023/09/01 09:29:08;;;;;;;8.02;3.40;;;18.30;99.90;;;;;;5099863;28;20206;-48
2023/09/01 09:31:41;;;;;;;8.60;3.55;;;18.30;99.90;;;;;;5100380;28;20126;-45
2023/09/01 09:34:14;;;;;;;;;;;18.30;99.90;;;;;;5105647;28;20059;-47
2023/09/01 09:36:40;;;;;;;7.68;3.13;;;18.20;99.90;;;;;;5103917;28;19930;-46
2023/09/01 09:39:19;;;;;;;5.18;3.10;;;18.20;99.90;;;;;;5104459;28;20194;-48
2023/09/01 09:41:45;;;;;;;7.28;3.60;;;18.20;99.90;;;;;;5102795;28;20118;-46
2023/09/01 09:44:12;;;;;;;5.43;3.25;;;18.10;99.90;;;;;;5104399;28;20151;-47
2023/09/01 09:46:43;;;;;;;5.47;3.38;;;18.10;99.90;;;;;;5100081;28;20047;-49
2023/09/01 09:49:10;;;;;;;7.35;3.30;;;18.10;99.90;;;;;;5104083;28;20058;-50
2023/09/01 09:51:37;;;;;;;6.18;3.83;;;18.20;99.90;;;;;;5103212;28;20168;-48
2023/09/01 09:54:04;;;;;;;9.77;3.80;;;18.20;99.90;;;;;;5098915;28;20448;-49
2023/09/01 09:56:32;;;;;;;6.38;4.03;;;18.30;99.90;;;;;;5096387;28;20075;-45
2023/09/01 09:59:03;;;;;;;10.88;4.90;;;18.30;99.90;;;;;;5102887;28;20040;-47
2023/09/01 10:01:32;;;;;;;5.60;3.55;;;18.30;99.90;;;;;;5084930;28;20184;-46
2023/09/01 10:04:02;;;;;;;9.15;4.18;;;18.30;99.90;;;;;;5102712;28;20040;-46
2023/09/01 10:06:28;;;;;;;9.75;4.00;;;18.40;99.90;;;;;;5102070;28;20051;-45
2023/09/01 10:08:54;;;;;;;12.90;5.10;;;18.40;99.90;;;;;;5097723;28;20455;-47
2023/09/01 10:11:21;;;;;;;8.55;5.05;;;18.50;99.90;;;;;;5102589;28;20614;-46
2023/09/01 10:13:48;;;;;;;10.80;5.00;;;18.60;99.90;;;;;;5069118;28;20047;-47
2023/09/01 10:16:14;;;;;;;9.07;4.78;;;18.70;99.90;;;;;;5095262;28;20132;-49
2023/09/01 10:18:43;;;;;;;8.15;4.90;;;18.80;99.90;;;;;;5113875;27;20507;-49
2023/09/01 10:21:09;;;;;;;6.07;4.60;;;18.90;99.90;;;;;;5103467;28;20059;-47
2023/09/01 10:23:35;;;;;;;8.20;4.97;;;19.00;99.90;;;;;;5102223;27;20043;-50
2023/09/01 10:26:24;;;;;;;8.43;4.57;;;19.10;99.90;;;;;;5101367;28;20108;-47
2023/09/01 10:29:04;;;;;;;10.73;5.95;;;19.30;99.90;;;;;;5088429;28;20062;-48
2023/09/01 10:31:35;;;;;;;7.35;4.95;;;19.50;99.90;;;;;;5102421;28;20185;-48
2023/09/01 10:34:08;;;;;;;9.90;5.72;;;19.60;99.90;;;;;;5090082;28;20040;-49
2023/09/01 10:36:34;;;;;;;11.55;5.45;;;19.70;99.90;;;;;;5095742;28;20516;-46
2023/09/01 10:39:32;;;;;;;10.50;6.50;;;19.80;99.90;;;;;;5089076;28;20390;-50
2023/09/01 10:42:07;;;;;;;9.70;5.97;;;20.00;99.90;;;;;;5045641;28;20056;-48
2023/09/01 10:44:39;;;;;;;8.93;6.00;;;20.00;99.90;;;;;;5103631;28;20070;-46
2023/09/01 10:47:32;;;;;;;11.55;6.68;;;20.10;99.90;;;;;;5098282;28;20047;-46
2023/09/01 10:50:00;;;;;;;11.57;6.32;;;20.30;99.90;;;;;;5101385;28;20230;-49
2023/09/01 10:52:28;;;;;;;11.50;6.18;;;20.40;99.90;;;;;;5090502;28;20047;-50
2023/09/01 10:55:00;;;;;;;10.15;6.30;;;20.30;99.90;;;;;;5100712;28;20059;-46
2023/09/01 10:57:41;;;;;;;11.60;6.72;;;20.40;99.90;;;;;;5088414;28;20588;-48
2023/09/01 11:00:29;;;;;;;9.80;7.10;;;20.40;99.90;;;;;;5084497;28;20124;-50
2023/09/01 11:03:30;;;;;;;12.55;7.22;;;20.60;99.90;;;;;;5099647;28;20089;-50
2023/09/01 11:06:01;;;;;;;12.00;7.72;;;20.70;99.90;;;;;;5107846;28;20044;-47
2023/09/01 11:08:27;;;;;;;13.77;8.32;;;20.70;99.90;;;;;;5093843;28;20369;-48
2023/09/01 11:10:55;;;;;;;12.20;7.80;;;20.90;99.90;;;;;;5108666;28;20494;-49
2023/09/01 11:13:22;;;;;;;9.70;8.05;;;20.90;99.90;;;;;;5108432;28;20032;-48
2023/09/01 11:15:49;;;;;;;13.15;8.60;;;20.90;99.90;;;;;;5108708;28;20227;-49
2023/09/01 11:18:17;;;;;;;11.82;9.15;;;20.90;99.90;;;;;;5111960;28;20031;-47
2023/09/01 11:20:43;;;;;;;14.93;9.95;;;20.80;99.90;;;;;;5111038;28;20042;-50
2023/09/01 11:23:09;;;;;;;12.13;9.13;;;20.80;99.90;;;;;;5115608;27;20050;-50
2023/09/01 11:25:35;;;;;;;12.77;9.50;;;20.80;99.90;;;;;;5102697;28;20162;-47
2023/09/01 11:28:02;;;;;;;11.50;9.05;;;20.90;99.90;;;;;;5102728;28;20122;-47
2023/09/01 11:30:27;;;;;;;12.52;9.38;;;21.10;99.90;;;;;;5090394;28;20047;-46
2023/09/01 11:32:54;;;;;;;12.70;9.25;;;21.20;99.90;;;;;;5093631;28;20058;-49
2023/09/01 11:35:27;;;;;;;12.98;9.88;;;21.20;99.90;;;;;;5107778;28;20100;-50
2023/09/01 11:37:53;;;;;;;19.15;11.50;;;21.20;99.90;;;;;;5114731;27;20043;-48
2023/09/01 11:40:22;;;;;;;14.70;9.80;;;21.20;99.90;;;;;;5100119;28;20359;-49
2023/09/01 11:42:48;;;;;;;16.35;11.00;;;21.20;99.90;;;;;;5106680;28;20043;-46
2023/09/01 11:45:14;;;;;;;16.25;9.35;;;21.30;99.90;;;;;;5106775;28;20040;-47
2023/09/01 11:47:40;;;;;;;15.98;9.52;;;21.30;99.90;;;;;;5101920;28;20469;-46
2023/09/01 11:50:11;;;;;;;14.20;9.70;;;21.30;99.90;;;;;;5106311;28;20041;-46
2023/09/01 11:52:50;;;;;;;13.80;9.15;;;21.20;99.90;;;;;;5117865;27;20051;-46
2023/09/01 11:55:33;;;;;;;15.90;8.40;;;21.20;99.90;;;;;;5105935;28;20055;-50
2023/09/01 11:57:58;;;;;;;17.23;10.20;;;21.30;99.90;;;;;;5078596;28;20039;-49
2023/09/01 12:00:35;;;;;;;13.45;9.50;;;21.30;99.90;;;;;;5105654;28;20054;-50
2023/09/01 12:03:03;;;;;;;16.65;9.35;;;21.30;99.90;;;;;;5095640;28;20126;-49
2023/09/01 12:05:37;;;;;;;17.00;10.00;;;21.10;99.90;;;;;;5085948;28;20044;-48
2023/09/01 12:08:04;;;;;;;16.27;9.88;;;21.10;99.90;;;;;;5094654;28;20111;-46
2023/09/01 12:10:30;;;;;;;14.45;9.45;;;21.10;99.90;;;;;;5091444;28;20035;-47
2023/09/01 12:13:07;;;;;;;14.35;10.63;;;21.10;99.90;;;;;;5106895;28;20086;-46
2023/09/01 12:15:52;;;;;;;13.90;10.05;;;21.00;99.90;;;;;;5105915;27;20048;-46
2023/09/01 12:18:35;;;;;;;14.45;10.68;;;21.00;99.90;;;;;;5099528;28;20059;-47
2023/09/01 12:21:08;;;;;;;;;;;20.90;99.90;;;;;;5095838;28;20051;-46
2023/09/01 12:23:39;;;;;;;11.80;9.87;;;20.70;99.90;;;;;;5091333;28;20320;-48
2023/09/01 12:26:04;;;;;;;13.70;9.85;;;20.80;99.90;;;;;;5083363;27;20050;-49
2023/09/01 12:28:33;;;;;;;16.30;10.77;;;20.80;99.90;;;;;;5109117;27;20046;-46
2023/09/01 12:31:01;;;;;;;17.15;11.25;;;20.90;99.90;;;;;;5106285;27;20054;-48
2023/09/01 12:33:27;;;;;;;16.42;10.55;;;20.90;99.90;;;;;;5090794;28;20395;-49
2023/09/01 12:35:53;;;;;;;34.72;11.77;;;21.00;99.90;;;;;;5105409;28;20039;-48
2023/09/01 12:38:19;;;;;;;12.48;10.73;;;21.10;99.90;;;;;;5108596;27;20112;-49
2023/09/01 12:40:45;;;;;;;15.93;10.55;;;21.10;99.90;;;;;;5121147;27;20205;-45
2023/09/01 12:43:10;;;;;;;13.90;10.65;;;21.10;99.90;;;;;;5113066;27;20089;-47
2023/09/01 12:45:36;;;;;;;12.05;10.07;;;21.10;99.90;;;;;;5079426;27;20154;-47
2023/09/01 12:48:03;;;;;;;15.50;11.23;;;21.10;99.90;;;;;;5114110;27;20036;-47